Terminal Aerodrome Forecast
Issued by NWS Twin Cities, MN

Home | Current Version | Previous Version | Text Only | Print | Product List | Glossary Off
Versions: 1 2 3 4 5 6 7 8 9 10 11 12 13 14 15 16 17 18 19 20 21 22 23 24

000
FTUS43 KMPX 021127
TAFEAU
TAF
KEAU 021127Z 0212/0312 19004KT 6SM -SHRA SCT040 BKN200
      TEMPO 0212/0216 4SM -SHRA BKN040 OVC100
     FM021600 17006KT P6SM BKN100 OVC150
     FM022100 18011KT P6SM VCSH BKN050
     FM030400 15007KT 6SM BR FEW250
     FM030700 13002KT 4SM BR FEW004
      TEMPO 0309/0312 2SM BR SCT004=

USA.gov is the U.S. government's official web portal to all federal, state and local government web resources and services.